sensor_id;sensor_type;location;lat;lon;timestamp;pressure;altitude;pressure_sealevel;temperature;humidity
21359;BME280;13506;50.852;20.632;2023-07-08T00:02:17;98858.22;;;15.80;64.44
21359;BME280;13506;50.852;20.632;2023-07-08T00:04:45;98859.44;;;15.76;64.80
21359;BME280;13506;50.852;20.632;2023-07-08T00:07:18;98863.19;;;15.73;64.91
21359;BME280;13506;50.852;20.632;2023-07-08T00:09:47;98860.66;;;15.72;65.02
21359;BME280;13506;50.852;20.632;2023-07-08T00:12:15;98853.84;;;15.69;65.08
21359;BME280;13506;50.852;20.632;2023-07-08T00:14:42;98861.22;;;15.66;65.46
21359;BME280;13506;50.852;20.632;2023-07-08T00:17:12;98860.63;;;15.62;65.54
21359;BME280;13506;50.852;20.632;2023-07-08T00:19:40;98856.59;;;15.58;65.40
21359;BME280;13506;50.852;20.632;2023-07-08T00:22:12;98857.53;;;15.57;64.99
21359;BME280;13506;50.852;20.632;2023-07-08T00:24:41;98857.22;;;15.50;65.51
21359;BME280;13506;50.852;20.632;2023-07-08T00:27:11;98862.75;;;15.47;65.31
21359;BME280;13506;50.852;20.632;2023-07-08T00:29:40;98862.06;;;15.45;65.24
21359;BME280;13506;50.852;20.632;2023-07-08T00:32:12;98861.34;;;15.43;65.42
21359;BME280;13506;50.852;20.632;2023-07-08T00:34:41;98859.09;;;15.38;65.72
21359;BME280;13506;50.852;20.632;2023-07-08T00:37:11;98857.41;;;15.37;65.55
21359;BME280;13506;50.852;20.632;2023-07-08T00:39:39;98864.50;;;15.37;65.87
21359;BME280;13506;50.852;20.632;2023-07-08T00:42:15;98857.69;;;15.34;65.82
21359;BME280;13506;50.852;20.632;2023-07-08T00:44:43;98858.53;;;15.35;65.91
21359;BME280;13506;50.852;20.632;2023-07-08T00:47:15;98845.84;;;15.29;65.82
21359;BME280;13506;50.852;20.632;2023-07-08T00:49:45;98845.13;;;15.27;66.46
21359;BME280;13506;50.852;20.632;2023-07-08T00:52:21;98841.53;;;15.28;66.17
21359;BME280;13506;50.852;20.632;2023-07-08T00:54:51;98849.56;;;15.26;66.12
21359;BME280;13506;50.852;20.632;2023-07-08T00:57:22;98849.94;;;15.21;66.50
21359;BME280;13506;50.852;20.632;2023-07-08T00:59:55;98844.78;;;15.20;66.14
21359;BME280;13506;50.852;20.632;2023-07-08T01:02:27;98845.91;;;15.17;66.31
21359;BME280;13506;50.852;20.632;2023-07-08T01:05:01;98842.56;;;15.15;66.33
21359;BME280;13506;50.852;20.632;2023-07-08T01:07:32;98837.53;;;15.12;66.10
21359;BME280;13506;50.852;20.632;2023-07-08T01:10:06;98843.44;;;15.05;67.01
21359;BME280;13506;50.852;20.632;2023-07-08T01:12:44;98845.00;;;15.07;65.87
21359;BME280;13506;50.852;20.632;2023-07-08T01:15:13;98843.94;;;14.98;66.75
21359;BME280;13506;50.852;20.632;2023-07-08T01:17:44;98842.97;;;14.99;66.64
21359;BME280;13506;50.852;20.632;2023-07-08T01:20:13;98839.78;;;14.96;66.44
21359;BME280;13506;50.852;20.632;2023-07-08T01:22:43;98837.66;;;14.90;66.54
21359;BME280;13506;50.852;20.632;2023-07-08T01:25:12;98839.31;;;14.91;66.47
21359;BME280;13506;50.852;20.632;2023-07-08T01:27:43;98844.84;;;14.88;66.45
21359;BME280;13506;50.852;20.632;2023-07-08T01:30:14;98843.41;;;14.84;67.07
21359;BME280;13506;50.852;20.632;2023-07-08T01:32:47;98836.22;;;14.86;66.71
21359;BME280;13506;50.852;20.632;2023-07-08T01:35:17;98847.25;;;14.79;66.86
21359;BME280;13506;50.852;20.632;2023-07-08T01:37:50;98850.84;;;14.78;66.83
21359;BME280;13506;50.852;20.632;2023-07-08T01:40:26;98842.22;;;14.76;66.15
21359;BME280;13506;50.852;20.632;2023-07-08T01:42:55;98848.59;;;14.74;66.44
21359;BME280;13506;50.852;20.632;2023-07-08T01:45:25;98848.03;;;14.70;66.73
21359;BME280;13506;50.852;20.632;2023-07-08T01:47:56;98848.53;;;14.64;67.32
21359;BME280;13506;50.852;20.632;2023-07-08T01:50:26;98843.09;;;14.66;67.03
21359;BME280;13506;50.852;20.632;2023-07-08T01:52:59;98845.88;;;14.64;67.32
21359;BME280;13506;50.852;20.632;2023-07-08T01:55:28;98849.59;;;14.61;67.35
21359;BME280;13506;50.852;20.632;2023-07-08T01:57:57;98844.31;;;14.61;67.39
21359;BME280;13506;50.852;20.632;2023-07-08T02:00:25;98846.38;;;14.58;67.38
21359;BME280;13506;50.852;20.632;2023-07-08T02:02:54;98845.06;;;14.52;67.10
21359;BME280;13506;50.852;20.632;2023-07-08T02:05:23;98839.09;;;14.50;67.10
21359;BME280;13506;50.852;20.632;2023-07-08T02:07:51;98840.56;;;14.43;67.53
21359;BME280;13506;50.852;20.632;2023-07-08T02:10:21;98837.22;;;14.41;67.37
21359;BME280;13506;50.852;20.632;2023-07-08T02:12:49;98833.59;;;14.42;67.26
21359;BME280;13506;50.852;20.632;2023-07-08T02:15:17;98839.97;;;14.39;66.97
21359;BME280;13506;50.852;20.632;2023-07-08T02:17:45;98836.63;;;14.37;66.75
21359;BME280;13506;50.852;20.632;2023-07-08T02:20:13;98836.88;;;14.34;67.16
21359;BME280;13506;50.852;20.632;2023-07-08T02:22:41;98834.44;;;14.31;67.44
21359;BME280;13506;50.852;20.632;2023-07-08T02:25:09;98838.78;;;14.32;67.11
21359;BME280;13506;50.852;20.632;2023-07-08T02:27:39;98849.19;;;14.23;68.42
21359;BME280;13506;50.852;20.632;2023-07-08T02:30:07;98853.47;;;14.24;67.63
21359;BME280;13506;50.852;20.632;2023-07-08T02:32:36;98847.75;;;14.18;68.07
21359;BME280;13506;50.852;20.632;2023-07-08T02:35:08;98848.72;;;14.17;67.96
21359;BME280;13506;50.852;20.632;2023-07-08T02:37:36;98848.81;;;14.16;67.59
21359;BME280;13506;50.852;20.632;2023-07-08T02:40:05;98850.63;;;14.15;67.58
21359;BME280;13506;50.852;20.632;2023-07-08T02:42:33;98851.69;;;14.13;67.95
21359;BME280;13506;50.852;20.632;2023-07-08T02:45:03;98854.47;;;14.11;67.92
21359;BME280;13506;50.852;20.632;2023-07-08T02:47:31;98842.34;;;14.09;68.08
21359;BME280;13506;50.852;20.632;2023-07-08T02:49:59;98840.97;;;14.05;67.96
21359;BME280;13506;50.852;20.632;2023-07-08T02:52:27;98846.69;;;13.98;68.57
21359;BME280;13506;50.852;20.632;2023-07-08T02:54:55;98843.81;;;14.02;68.43
21359;BME280;13506;50.852;20.632;2023-07-08T02:57:23;98850.63;;;14.04;68.00
21359;BME280;13506;50.852;20.632;2023-07-08T02:59:51;98843.59;;;14.05;68.19
21359;BME280;13506;50.852;20.632;2023-07-08T03:02:21;98846.91;;;14.07;68.13
21359;BME280;13506;50.852;20.632;2023-07-08T03:04:49;98853.97;;;14.06;68.06
21359;BME280;13506;50.852;20.632;2023-07-08T03:07:21;98854.56;;;14.10;68.23
21359;BME280;13506;50.852;20.632;2023-07-08T03:09:49;98860.56;;;14.12;67.79
21359;BME280;13506;50.852;20.632;2023-07-08T03:12:17;98852.53;;;14.13;68.12
21359;BME280;13506;50.852;20.632;2023-07-08T03:14:45;98853.72;;;14.20;68.44
21359;BME280;13506;50.852;20.632;2023-07-08T03:17:14;98857.78;;;14.25;67.75
21359;BME280;13506;50.852;20.632;2023-07-08T03:19:46;98847.59;;;14.31;67.80
21359;BME280;13506;50.852;20.632;2023-07-08T03:22:14;98855.31;;;14.34;67.48
21359;BME280;13506;50.852;20.632;2023-07-08T03:24:42;98858.50;;;14.38;67.91
21359;BME280;13506;50.852;20.632;2023-07-08T03:27:16;98859.81;;;14.44;67.12
21359;BME280;13506;50.852;20.632;2023-07-08T03:29:45;98852.53;;;14.47;67.26
21359;BME280;13506;50.852;20.632;2023-07-08T03:32:13;98856.44;;;14.53;67.72
21359;BME280;13506;50.852;20.632;2023-07-08T03:34:42;98860.50;;;14.57;67.44
21359;BME280;13506;50.852;20.632;2023-07-08T03:37:11;98853.78;;;14.64;67.22
21359;BME280;13506;50.852;20.632;2023-07-08T03:39:39;98853.16;;;14.72;66.97
21359;BME280;13506;50.852;20.632;2023-07-08T03:42:07;98858.75;;;14.78;66.74
21359;BME280;13506;50.852;20.632;2023-07-08T03:44:36;98863.41;;;14.86;66.67
21359;BME280;13506;50.852;20.632;2023-07-08T03:47:04;98859.44;;;14.92;66.65
21359;BME280;13506;50.852;20.632;2023-07-08T03:49:32;98856.03;;;15.01;66.62
21359;BME280;13506;50.852;20.632;2023-07-08T03:52:00;98855.53;;;15.07;66.34
21359;BME280;13506;50.852;20.632;2023-07-08T03:54:30;98866.97;;;15.17;66.22
21359;BME280;13506;50.852;20.632;2023-07-08T03:56:59;98868.25;;;15.23;66.54
21359;BME280;13506;50.852;20.632;2023-07-08T03:59:28;98864.53;;;15.26;65.99
21359;BME280;13506;50.852;20.632;2023-07-08T04:01:58;98867.41;;;15.34;64.38
21359;BME280;13506;50.852;20.632;2023-07-08T04:04:27;98868.28;;;15.44;64.46
21359;BME280;13506;50.852;20.632;2023-07-08T04:06:55;98871.25;;;15.51;64.05
21359;BME280;13506;50.852;20.632;2023-07-08T04:09:23;98860.03;;;15.58;63.67
21359;BME280;13506;50.852;20.632;2023-07-08T04:11:53;98852.03;;;15.70;63.68
21359;BME280;13506;50.852;20.632;2023-07-08T04:14:21;98856.09;;;15.74;63.15
21359;BME280;13506;50.852;20.632;2023-07-08T04:16:56;98864.66;;;15.87;63.15
21359;BME280;13506;50.852;20.632;2023-07-08T04:19:24;98856.19;;;15.93;62.85
21359;BME280;13506;50.852;20.632;2023-07-08T04:21:53;98863.88;;;16.06;62.83
21359;BME280;13506;50.852;20.632;2023-07-08T04:24:21;98862.94;;;16.17;62.82
21359;BME280;13506;50.852;20.632;2023-07-08T04:26:50;98859.97;;;16.31;62.46
21359;BME280;13506;50.852;20.632;2023-07-08T04:29:20;98862.75;;;16.39;61.95
21359;BME280;13506;50.852;20.632;2023-07-08T04:31:48;98852.34;;;16.48;62.08
21359;BME280;13506;50.852;20.632;2023-07-08T04:34:17;98861.28;;;16.66;61.48
21359;BME280;13506;50.852;20.632;2023-07-08T04:36:45;98862.81;;;16.78;61.27
21359;BME280;13506;50.852;20.632;2023-07-08T04:39:13;98859.59;;;16.94;60.21
21359;BME280;13506;50.852;20.632;2023-07-08T04:41:41;98860.22;;;17.08;59.84
21359;BME280;13506;50.852;20.632;2023-07-08T04:44:10;98857.72;;;17.16;58.09
21359;BME280;13506;50.852;20.632;2023-07-08T04:46:43;98858.25;;;17.29;58.24
21359;BME280;13506;50.852;20.632;2023-07-08T04:49:13;98858.50;;;17.36;56.93
21359;BME280;13506;50.852;20.632;2023-07-08T04:51:41;98852.78;;;17.50;57.45
21359;BME280;13506;50.852;20.632;2023-07-08T04:54:10;98863.19;;;17.61;57.24
21359;BME280;13506;50.852;20.632;2023-07-08T04:56:39;98857.88;;;17.71;56.85
21359;BME280;13506;50.852;20.632;2023-07-08T04:59:09;98859.19;;;17.85;56.46
21359;BME280;13506;50.852;20.632;2023-07-08T05:01:40;98853.78;;;17.96;55.79
21359;BME280;13506;50.852;20.632;2023-07-08T05:04:11;98865.53;;;18.12;56.08
21359;BME280;13506;50.852;20.632;2023-07-08T05:06:40;98858.38;;;18.22;55.55
21359;BME280;13506;50.852;20.632;2023-07-08T05:09:09;98859.81;;;18.34;55.04
21359;BME280;13506;50.852;20.632;2023-07-08T05:11:37;98858.97;;;18.43;54.72
21359;BME280;13506;50.852;20.632;2023-07-08T05:14:05;98867.00;;;18.52;54.39
21359;BME280;13506;50.852;20.632;2023-07-08T05:16:35;98856.19;;;18.63;53.18
21359;BME280;13506;50.852;20.632;2023-07-08T05:19:04;98858.47;;;18.76;53.48
21359;BME280;13506;50.852;20.632;2023-07-08T05:21:32;98862.59;;;18.88;52.91
21359;BME280;13506;50.852;20.632;2023-07-08T05:24:01;98857.34;;;18.96;52.71
21359;BME280;13506;50.852;20.632;2023-07-08T05:26:29;98858.09;;;19.06;52.13
21359;BME280;13506;50.852;20.632;2023-07-08T05:28:58;98858.69;;;19.18;51.67
21359;BME280;13506;50.852;20.632;2023-07-08T05:31:26;98859.44;;;19.29;51.95
21359;BME280;13506;50.852;20.632;2023-07-08T05:33:54;98862.69;;;19.40;51.93
21359;BME280;13506;50.852;20.632;2023-07-08T05:36:24;98857.97;;;19.52;51.56
21359;BME280;13506;50.852;20.632;2023-07-08T05:38:52;98856.88;;;19.63;51.55
21359;BME280;13506;50.852;20.632;2023-07-08T05:41:20;98860.09;;;19.75;51.79
21359;BME280;13506;50.852;20.632;2023-07-08T05:43:48;98858.50;;;19.90;51.31
21359;BME280;13506;50.852;20.632;2023-07-08T05:46:16;98860.59;;;20.04;51.44
21359;BME280;13506;50.852;20.632;2023-07-08T05:48:44;98852.66;;;20.13;50.14
21359;BME280;13506;50.852;20.632;2023-07-08T05:51:13;98857.38;;;20.27;49.28
21359;BME280;13506;50.852;20.632;2023-07-08T05:53:42;98857.91;;;20.39;49.08
21359;BME280;13506;50.852;20.632;2023-07-08T05:56:10;98855.78;;;20.51;49.34
21359;BME280;13506;50.852;20.632;2023-07-08T05:58:38;98850.81;;;20.64;48.38
21359;BME280;13506;50.852;20.632;2023-07-08T06:01:06;98848.19;;;20.80;47.76
21359;BME280;13506;50.852;20.632;2023-07-08T06:03:34;98852.84;;;20.95;47.28
21359;BME280;13506;50.852;20.632;2023-07-08T06:06:02;98846.91;;;21.09;47.50
21359;BME280;13506;50.852;20.632;2023-07-08T06:08:32;98854.22;;;21.23;46.52
21359;BME280;13506;50.852;20.632;2023-07-08T06:11:01;98856.88;;;21.40;47.10
21359;BME280;13506;50.852;20.632;2023-07-08T06:13:29;98848.19;;;21.54;46.58
21359;BME280;13506;50.852;20.632;2023-07-08T06:15:58;98844.69;;;21.70;45.47
21359;BME280;13506;50.852;20.632;2023-07-08T06:18:26;98845.47;;;21.87;46.11
21359;BME280;13506;50.852;20.632;2023-07-08T06:20:55;98846.41;;;22.02;46.23
21359;BME280;13506;50.852;20.632;2023-07-08T06:23:24;98846.50;;;22.17;44.97
21359;BME280;13506;50.852;20.632;2023-07-08T06:25:53;98845.63;;;22.33;45.12
21359;BME280;13506;50.852;20.632;2023-07-08T06:28:22;98840.28;;;22.41;44.10
21359;BME280;13506;50.852;20.632;2023-07-08T06:30:51;98841.13;;;22.65;45.54
21359;BME280;13506;50.852;20.632;2023-07-08T06:33:19;98831.34;;;22.80;44.26
21359;BME280;13506;50.852;20.632;2023-07-08T06:35:47;98834.06;;;22.95;42.28
21359;BME280;13506;50.852;20.632;2023-07-08T06:38:14;98833.81;;;23.05;42.57
21359;BME280;13506;50.852;20.632;2023-07-08T06:40:42;98840.13;;;23.12;40.84
21359;BME280;13506;50.852;20.632;2023-07-08T06:43:10;98834.72;;;23.20;40.77
21359;BME280;13506;50.852;20.632;2023-07-08T06:45:58;98836.66;;;23.26;40.93
21359;BME280;13506;50.852;20.632;2023-07-08T06:48:25;98835.88;;;23.41;41.74
21359;BME280;13506;50.852;20.632;2023-07-08T06:50:55;98833.22;;;23.56;41.18
21359;BME280;13506;50.852;20.632;2023-07-08T06:53:23;98833.50;;;23.76;41.90
21359;BME280;13506;50.852;20.632;2023-07-08T06:55:51;98846.31;;;23.95;40.47
21359;BME280;13506;50.852;20.632;2023-07-08T06:58:20;98838.09;;;24.11;40.72
21359;BME280;13506;50.852;20.632;2023-07-08T07:00:48;98838.63;;;24.22;40.41
21359;BME280;13506;50.852;20.632;2023-07-08T07:03:17;98834.00;;;24.45;41.09
21359;BME280;13506;50.852;20.632;2023-07-08T07:05:46;98831.72;;;24.64;39.93
21359;BME280;13506;50.852;20.632;2023-07-08T07:08:13;98830.63;;;24.80;38.54
21359;BME280;13506;50.852;20.632;2023-07-08T07:10:42;98830.78;;;24.93;36.57
21359;BME280;13506;50.852;20.632;2023-07-08T07:13:10;98825.50;;;25.00;35.80
21359;BME280;13506;50.852;20.632;2023-07-08T07:15:38;98824.34;;;25.09;34.97
21359;BME280;13506;50.852;20.632;2023-07-08T07:18:06;98825.47;;;25.21;34.85
21359;BME280;13506;50.852;20.632;2023-07-08T07:20:37;98825.78;;;25.33;33.43
21359;BME280;13506;50.852;20.632;2023-07-08T07:23:05;98827.09;;;25.44;33.49
21359;BME280;13506;50.852;20.632;2023-07-08T07:25:34;98831.06;;;25.26;34.31
21359;BME280;13506;50.852;20.632;2023-07-08T07:28:02;98829.78;;;25.44;34.52
21359;BME280;13506;50.852;20.632;2023-07-08T07:30:32;98832.50;;;25.50;31.95
21359;BME280;13506;50.852;20.632;2023-07-08T07:33:00;98829.31;;;25.68;34.05
21359;BME280;13506;50.852;20.632;2023-07-08T07:35:28;98826.13;;;25.86;34.21
21359;BME280;13506;50.852;20.632;2023-07-08T07:37:57;98827.88;;;26.07;32.84
21359;BME280;13506;50.852;20.632;2023-07-08T07:40:26;98824.25;;;26.22;33.39
21359;BME280;13506;50.852;20.632;2023-07-08T07:42:53;98825.31;;;26.34;33.73
21359;BME280;13506;50.852;20.632;2023-07-08T07:45:22;98830.13;;;26.52;31.65
21359;BME280;13506;50.852;20.632;2023-07-08T07:47:49;98834.69;;;26.65;30.89
21359;BME280;13506;50.852;20.632;2023-07-08T07:50:18;98838.00;;;26.73;31.48
21359;BME280;13506;50.852;20.632;2023-07-08T07:52:46;98838.00;;;26.67;30.83
21359;BME280;13506;50.852;20.632;2023-07-08T07:55:15;98839.50;;;26.83;31.50
21359;BME280;13506;50.852;20.632;2023-07-08T07:57:43;98833.50;;;26.87;30.17
21359;BME280;13506;50.852;20.632;2023-07-08T08:00:14;98832.28;;;26.90;31.74
21359;BME280;13506;50.852;20.632;2023-07-08T08:02:44;98842.34;;;26.74;30.30
21359;BME280;13506;50.852;20.632;2023-07-08T08:05:13;98836.00;;;27.02;31.62
21359;BME280;13506;50.852;20.632;2023-07-08T08:07:41;98834.34;;;26.94;30.65
21359;BME280;13506;50.852;20.632;2023-07-08T08:10:10;98835.06;;;26.48;30.76
21359;BME280;13506;50.852;20.632;2023-07-08T08:12:39;98841.97;;;26.91;31.16
21359;BME280;13506;50.852;20.632;2023-07-08T08:15:08;98837.47;;;27.11;31.53
21359;BME280;13506;50.852;20.632;2023-07-08T08:17:36;98844.06;;;27.22;30.76
21359;BME280;13506;50.852;20.632;2023-07-08T08:20:06;98844.91;;;27.43;31.38
21359;BME280;13506;50.852;20.632;2023-07-08T08:22:34;98850.47;;;27.48;30.21
21359;BME280;13506;50.852;20.632;2023-07-08T08:25:02;98846.75;;;27.62;29.92
21359;BME280;13506;50.852;20.632;2023-07-08T08:27:30;98855.00;;;27.81;29.88
21359;BME280;13506;50.852;20.632;2023-07-08T08:30:00;98849.16;;;27.97;30.27
21359;BME280;13506;50.852;20.632;2023-07-08T08:32:28;98849.16;;;27.97;29.96
21359;BME280;13506;50.852;20.632;2023-07-08T08:34:56;98852.09;;;27.96;28.89
21359;BME280;13506;50.852;20.632;2023-07-08T08:37:24;98837.66;;;27.57;29.38
21359;BME280;13506;50.852;20.632;2023-07-08T08:39:52;98842.41;;;27.14;29.75
21359;BME280;13506;50.852;20.632;2023-07-08T08:42:26;98838.72;;;27.49;30.85
21359;BME280;13506;50.852;20.632;2023-07-08T08:44:55;98834.97;;;27.57;30.75
21359;BME280;13506;50.852;20.632;2023-07-08T08:47:36;98833.03;;;27.84;31.11
21359;BME280;13506;50.852;20.632;2023-07-08T08:50:16;98836.72;;;28.03;30.73
21359;BME280;13506;50.852;20.632;2023-07-08T08:52:51;98836.28;;;28.12;30.14
21359;BME280;13506;50.852;20.632;2023-07-08T08:55:22;98839.50;;;28.34;30.30
21359;BME280;13506;50.852;20.632;2023-07-08T08:57:59;98829.53;;;28.48;30.82
21359;BME280;13506;50.852;20.632;2023-07-08T09:00:42;98833.97;;;28.68;29.67
21359;BME280;13506;50.852;20.632;2023-07-08T09:03:17;98832.81;;;28.82;30.04
21359;BME280;13506;50.852;20.632;2023-07-08T09:05:47;98832.22;;;28.80;28.73
21359;BME280;13506;50.852;20.632;2023-07-08T09:08:18;98841.22;;;28.92;28.82
21359;BME280;13506;50.852;20.632;2023-07-08T09:10:51;98848.59;;;29.10;28.65
21359;BME280;13506;50.852;20.632;2023-07-08T09:13:27;98840.56;;;29.29;28.44
21359;BME280;13506;50.852;20.632;2023-07-08T09:16:04;98840.50;;;29.10;27.97
21359;BME280;13506;50.852;20.632;2023-07-08T09:18:38;98840.06;;;29.39;28.25
21359;BME280;13506;50.852;20.632;2023-07-08T09:21:19;98835.53;;;29.32;27.18
21359;BME280;13506;50.852;20.632;2023-07-08T09:23:48;98831.63;;;29.10;27.27
21359;BME280;13506;50.852;20.632;2023-07-08T09:26:21;98839.66;;;28.85;27.74
21359;BME280;13506;50.852;20.632;2023-07-08T09:28:51;98843.50;;;28.95;27.97
21359;BME280;13506;50.852;20.632;2023-07-08T09:31:24;98833.94;;;29.00;28.73
21359;BME280;13506;50.852;20.632;2023-07-08T09:34:04;98833.69;;;29.08;28.27
21359;BME280;13506;50.852;20.632;2023-07-08T09:36:33;98839.13;;;28.94;28.04
21359;BME280;13506;50.852;20.632;2023-07-08T09:39:01;98828.81;;;28.60;28.66
21359;BME280;13506;50.852;20.632;2023-07-08T09:41:32;98831.25;;;28.68;28.89
21359;BME280;13506;50.852;20.632;2023-07-08T09:44:15;98837.81;;;28.79;29.07
21359;BME280;13506;50.852;20.632;2023-07-08T09:46:44;98819.88;;;28.98;29.19
21359;BME280;13506;50.852;20.632;2023-07-08T09:49:23;98817.84;;;29.18;29.13
21359;BME280;13506;50.852;20.632;2023-07-08T09:51:52;98829.41;;;29.25;28.39
21359;BME280;13506;50.852;20.632;2023-07-08T09:54:21;98822.84;;;28.58;28.85
21359;BME280;13506;50.852;20.632;2023-07-08T09:56:59;98826.13;;;28.60;28.34
21359;BME280;13506;50.852;20.632;2023-07-08T09:59:36;98822.63;;;28.84;28.80
21359;BME280;13506;50.852;20.632;2023-07-08T10:02:27;98809.34;;;28.89;28.89
21359;BME280;13506;50.852;20.632;2023-07-08T10:05:00;98814.63;;;29.03;29.29
21359;BME280;13506;50.852;20.632;2023-07-08T10:07:30;98812.00;;;28.96;28.67
21359;BME280;13506;50.852;20.632;2023-07-08T10:10:02;98801.38;;;29.08;29.73
21359;BME280;13506;50.852;20.632;2023-07-08T10:12:33;98806.50;;;29.34;28.52
21359;BME280;13506;50.852;20.632;2023-07-08T10:15:10;98804.19;;;29.38;27.86
21359;BME280;13506;50.852;20.632;2023-07-08T10:17:41;98804.66;;;29.53;28.40
21359;BME280;13506;50.852;20.632;2023-07-08T10:20:13;98801.41;;;29.45;27.38
21359;BME280;13506;50.852;20.632;2023-07-08T10:22:49;98805.22;;;29.37;27.58
21359;BME280;13506;50.852;20.632;2023-07-08T10:25:27;98795.00;;;29.46;27.78
21359;BME280;13506;50.852;20.632;2023-07-08T10:28:01;98804.34;;;29.43;27.64
21359;BME280;13506;50.852;20.632;2023-07-08T10:30:35;98791.91;;;29.42;29.01
21359;BME280;13506;50.852;20.632;2023-07-08T10:33:31;98792.41;;;29.58;28.22
21359;BME280;13506;50.852;20.632;2023-07-08T10:36:16;98790.09;;;29.61;28.08
21359;BME280;13506;50.852;20.632;2023-07-08T10:38:56;98792.03;;;29.91;28.83
21359;BME280;13506;50.852;20.632;2023-07-08T10:41:38;98805.81;;;30.01;27.74
21359;BME280;13506;50.852;20.632;2023-07-08T10:44:15;98793.81;;;29.97;27.42
21359;BME280;13506;50.852;20.632;2023-07-08T10:46:55;98794.88;;;30.14;27.26
21359;BME280;13506;50.852;20.632;2023-07-08T10:49:51;98792.56;;;30.30;27.56
21359;BME280;13506;50.852;20.632;2023-07-08T10:52:38;98798.72;;;30.37;27.72
21359;BME280;13506;50.852;20.632;2023-07-08T10:55:20;98784.69;;;30.59;27.20
21359;BME280;13506;50.852;20.632;2023-07-08T10:58:18;98783.28;;;30.56;27.11
21359;BME280;13506;50.852;20.632;2023-07-08T11:00:54;98789.81;;;30.48;26.26
21359;BME280;13506;50.852;20.632;2023-07-08T11:06:40;98788.22;;;30.59;26.63
21359;BME280;13506;50.852;20.632;2023-07-08T11:09:28;98787.53;;;30.64;26.76
21359;BME280;13506;50.852;20.632;2023-07-08T11:12:00;98776.88;;;30.81;26.21
21359;BME280;13506;50.852;20.632;2023-07-08T11:14:35;98781.00;;;30.83;25.92
21359;BME280;13506;50.852;20.632;2023-07-08T11:17:12;98772.53;;;30.91;26.07
21359;BME280;13506;50.852;20.632;2023-07-08T11:19:52;98769.38;;;30.83;26.52
21359;BME280;13506;50.852;20.632;2023-07-08T11:22:23;98767.59;;;30.76;26.71
21359;BME280;13506;50.852;20.632;2023-07-08T11:24:55;98764.31;;;30.63;27.01
21359;BME280;13506;50.852;20.632;2023-07-08T11:27:27;98765.03;;;30.51;26.74
21359;BME280;13506;50.852;20.632;2023-07-08T11:30:02;98755.84;;;30.29;26.79
21359;BME280;13506;50.852;20.632;2023-07-08T11:32:33;98760.66;;;30.08;27.02
21359;BME280;13506;50.852;20.632;2023-07-08T11:35:05;98761.78;;;30.19;27.67
21359;BME280;13506;50.852;20.632;2023-07-08T11:37:35;98757.19;;;30.20;26.81
21359;BME280;13506;50.852;20.632;2023-07-08T11:40:17;98755.94;;;30.22;26.83
21359;BME280;13506;50.852;20.632;2023-07-08T11:42:49;98749.03;;;30.26;27.56
21359;BME280;13506;50.852;20.632;2023-07-08T11:45:26;98755.16;;;30.33;28.03
21359;BME280;13506;50.852;20.632;2023-07-08T11:48:05;98751.19;;;30.48;26.24
21359;BME280;13506;50.852;20.632;2023-07-08T11:50:38;98733.06;;;30.36;26.16
21359;BME280;13506;50.852;20.632;2023-07-08T11:53:11;98751.25;;;30.29;26.72
21359;BME280;13506;50.852;20.632;2023-07-08T11:55:47;98752.94;;;30.42;26.56
21359;BME280;13506;50.852;20.632;2023-07-08T11:58:23;98746.34;;;30.38;26.89
21359;BME280;13506;50.852;20.632;2023-07-08T12:00:58;98750.13;;;30.37;26.70
21359;BME280;13506;50.852;20.632;2023-07-08T12:03:34;98748.84;;;30.51;26.75
21359;BME280;13506;50.852;20.632;2023-07-08T12:06:02;98737.56;;;30.43;26.81
21359;BME280;13506;50.852;20.632;2023-07-08T12:08:52;98734.03;;;30.42;26.58
21359;BME280;13506;50.852;20.632;2023-07-08T12:11:26;98744.13;;;30.35;26.97
21359;BME280;13506;50.852;20.632;2023-07-08T12:13:58;98751.03;;;30.31;27.13
21359;BME280;13506;50.852;20.632;2023-07-08T12:16:27;98745.06;;;30.41;26.99
21359;BME280;13506;50.852;20.632;2023-07-08T12:18:57;98744.25;;;30.40;27.07
21359;BME280;13506;50.852;20.632;2023-07-08T12:21:27;98736.16;;;30.40;27.14
21359;BME280;13506;50.852;20.632;2023-07-08T12:23:55;98734.25;;;30.41;26.12
21359;BME280;13506;50.852;20.632;2023-07-08T12:26:32;98726.41;;;30.39;26.46
21359;BME280;13506;50.852;20.632;2023-07-08T12:29:01;98726.53;;;30.44;26.44
21359;BME280;13506;50.852;20.632;2023-07-08T12:31:29;98725.00;;;30.48;26.44
21359;BME280;13506;50.852;20.632;2023-07-08T12:33:59;98723.94;;;30.49;26.04
21359;BME280;13506;50.852;20.632;2023-07-08T12:36:28;98724.16;;;30.36;26.37
21359;BME280;13506;50.852;20.632;2023-07-08T12:39:00;98722.97;;;30.32;25.90
21359;BME280;13506;50.852;20.632;2023-07-08T12:41:33;98726.84;;;30.36;25.58
21359;BME280;13506;50.852;20.632;2023-07-08T12:44:04;98727.22;;;30.40;26.55
21359;BME280;13506;50.852;20.632;2023-07-08T12:46:35;98722.91;;;30.50;26.44
21359;BME280;13506;50.852;20.632;2023-07-08T12:49:04;98725.00;;;30.48;26.15
21359;BME280;13506;50.852;20.632;2023-07-08T12:51:32;98725.34;;;30.28;26.08
21359;BME280;13506;50.852;20.632;2023-07-08T12:54:00;98718.22;;;30.46;26.11
21359;BME280;13506;50.852;20.632;2023-07-08T12:56:28;98722.09;;;30.50;26.10
21359;BME280;13506;50.852;20.632;2023-07-08T12:58:58;98715.72;;;30.44;26.47
21359;BME280;13506;50.852;20.632;2023-07-08T13:01:29;98713.72;;;30.40;26.33
21359;BME280;13506;50.852;20.632;2023-07-08T13:04:01;98705.53;;;30.46;26.11
21359;BME280;13506;50.852;20.632;2023-07-08T13:06:31;98713.50;;;30.53;26.26
21359;BME280;13506;50.852;20.632;2023-07-08T13:09:06;98705.75;;;30.33;25.97
21359;BME280;13506;50.852;20.632;2023-07-08T13:11:36;98706.44;;;30.40;26.42
21359;BME280;13506;50.852;20.632;2023-07-08T13:14:07;98702.03;;;30.15;26.00